Time;durP1;ratioP1;P1;durP2;ratioP2;P2;SDS_P1;SDS_P2;PMS_P1;PMS_P2;Temp;Humidity;BMP_temperature;BMP_pressure;BME280_temperature;BME280_humidity;BME280_pressure;Samples;Min_cycle;Max_cycle;Signal;HPM_P1;HPM_P2
2022/12/15 00:40:07;;;;;;;26.27;16.70;;;2.40;99.90;;;;;;4971282;28;20273;-51
2022/12/15 00:42:34;;;;;;;27.87;17.27;;;2.50;99.90;;;;;;4971976;28;20203;-50
2022/12/15 00:45:01;;;;;;;23.80;17.97;;;2.50;99.90;;;;;;4974542;28;20256;-50
2022/12/15 00:47:27;;;;;;;21.87;16.83;;;2.50;99.90;;;;;;4971627;28;20206;-51
2022/12/15 01:20:18;;;;;;;21.77;17.23;;;2.50;99.90;;;;;;4972100;28;20225;-50
2022/12/15 01:22:45;;;;;;;28.07;18.50;;;2.50;99.90;;;;;;4971746;28;20258;-51
2022/12/15 01:25:13;;;;;;;26.80;18.90;;;2.60;99.90;;;;;;4969347;28;20293;-50
2022/12/15 01:27:42;;;;;;;27.33;18.50;;;2.70;99.90;;;;;;4974058;28;20206;-49
2022/12/15 01:30:12;;;;;;;23.77;17.00;;;2.70;99.90;;;;;;4972200;28;20233;-52
2022/12/15 01:32:39;;;;;;;25.53;18.77;;;2.60;99.90;;;;;;4974994;28;20577;-50
2022/12/15 01:35:07;;;;;;;24.73;19.07;;;2.60;99.90;;;;;;4976987;28;20209;-50
2022/12/15 01:37:35;;;;;;;22.13;17.70;;;2.60;99.90;;;;;;4977936;28;20214;-50
2022/12/15 01:42:48;;;;;;;26.20;17.93;;;2.70;99.90;;;;;;4975305;28;20217;-50
2022/12/15 01:45:41;;;;;;;21.57;17.40;;;2.70;99.90;;;;;;4975864;28;20587;-51
2022/12/15 01:48:12;;;;;;;25.57;17.30;;;2.70;99.90;;;;;;4968566;28;20202;-51
2022/12/15 01:50:44;;;;;;;24.93;17.03;;;2.70;99.90;;;;;;4974873;28;20242;-50
2022/12/15 01:53:11;;;;;;;26.90;17.13;;;2.70;99.90;;;;;;4973608;28;20214;-50
2022/12/15 01:55:42;;;;;;;24.73;17.73;;;2.70;99.90;;;;;;4975224;28;20206;-49
2022/12/15 01:58:13;;;;;;;22.57;16.80;;;2.60;99.90;;;;;;4972540;28;20646;-49
2022/12/15 02:00:40;;;;;;;28.13;18.60;;;2.60;99.90;;;;;;4974286;28;20231;-50
2022/12/15 02:03:08;;;;;;;21.17;18.07;;;2.60;99.90;;;;;;4973908;28;20206;-49
2022/12/15 02:05:36;;;;;;;26.00;18.00;;;2.60;99.90;;;;;;4977730;28;20198;-49
2022/12/15 02:08:04;;;;;;;29.13;17.93;;;2.70;99.90;;;;;;4972838;28;20198;-50
2022/12/15 02:10:41;;;;;;;26.67;17.77;;;2.70;99.90;;;;;;4974410;28;20259;-50
2022/12/15 02:13:16;;;;;;;25.90;17.27;;;2.70;99.90;;;;;;4975014;28;20213;-50
2022/12/15 02:15:49;;;;;;;24.23;18.53;;;2.70;99.90;;;;;;4973657;28;20201;-50
2022/12/15 02:18:21;;;;;;;26.03;18.13;;;2.70;99.90;;;;;;4973607;28;20205;-50
2022/12/15 02:20:56;;;;;;;22.33;17.40;;;2.80;99.90;;;;;;4974337;28;20225;-49
2022/12/15 02:24:09;;;;;;;21.00;17.07;;;2.80;99.90;;;;;;4974453;28;20216;-50
2022/12/15 02:27:21;;;;;;;24.10;18.47;;;2.90;99.90;;;;;;4973395;28;20216;-50
2022/12/15 02:30:25;;;;;;;21.83;17.20;;;2.90;99.90;;;;;;4971450;28;20230;-50
2022/12/15 02:33:21;;;;;;;23.50;16.83;;;2.90;99.90;;;;;;4974040;28;20205;-49
2022/12/15 02:35:56;;;;;;;23.27;16.63;;;2.80;99.90;;;;;;4973376;28;20294;-50
2022/12/15 02:38:34;;;;;;;20.07;15.27;;;2.80;99.90;;;;;;4980344;28;20626;-50
2022/12/15 02:41:03;;;;;;;25.10;15.80;;;2.70;99.90;;;;;;4954982;28;20233;-50
2022/12/15 02:43:33;;;;;;;19.63;15.70;;;2.70;99.90;;;;;;4970840;28;20213;-52
2022/12/15 02:46:15;;;;;;;19.33;15.07;;;2.60;99.90;;;;;;4972782;28;20278;-51
2022/12/15 02:48:56;;;;;;;22.63;16.67;;;2.60;99.90;;;;;;4973872;28;20201;-50
2022/12/15 02:51:39;;;;;;;22.67;16.50;;;2.70;99.90;;;;;;4973016;28;20652;-50
2022/12/15 02:54:39;;;;;;;21.47;16.47;;;2.70;99.90;;;;;;4960974;28;20226;-48
2022/12/15 02:57:14;;;;;;;18.37;15.43;;;2.60;99.90;;;;;;4966403;28;20202;-50
2022/12/15 02:59:46;;;;;;;26.07;17.63;;;2.60;99.90;;;;;;4973320;28;20230;-50
2022/12/15 03:02:14;;;;;;;20.33;15.20;;;2.60;99.90;;;;;;4973540;28;20198;-51
2022/12/15 03:04:44;;;;;;;17.10;14.60;;;2.60;99.90;;;;;;4972812;28;20227;-51
2022/12/15 03:07:11;;;;;;;18.37;14.83;;;2.60;99.90;;;;;;4971172;28;20234;-53
2022/12/15 03:09:38;;;;;;;19.47;16.03;;;2.60;99.90;;;;;;4972915;28;20230;-49
2022/12/15 03:12:06;;;;;;;18.97;14.93;;;2.60;99.90;;;;;;4973272;28;20242;-51
2022/12/15 03:14:33;;;;;;;20.00;14.63;;;2.60;99.90;;;;;;4972913;28;20236;-52
2022/12/15 03:17:00;;;;;;;21.23;15.37;;;2.60;99.90;;;;;;4980114;28;20210;-49
2022/12/15 03:19:27;;;;;;;15.90;13.60;;;2.60;99.90;;;;;;4972148;28;20202;-52
2022/12/15 03:21:55;;;;;;;22.13;15.07;;;2.60;99.90;;;;;;4972212;28;20200;-50
2022/12/15 03:24:22;;;;;;;20.87;16.63;;;2.60;99.90;;;;;;4973273;28;20206;-49
2022/12/15 03:26:52;;;;;;;21.80;15.00;;;2.70;99.90;;;;;;4970996;28;20623;-51
2022/12/15 03:29:19;;;;;;;19.07;15.43;;;2.70;99.90;;;;;;4972938;28;20576;-50
2022/12/15 03:31:46;;;;;;;18.93;15.87;;;2.70;99.90;;;;;;4972059;28;20214;-50
2022/12/15 03:34:13;;;;;;;17.50;14.53;;;2.80;99.90;;;;;;4972953;28;20620;-49
2022/12/15 03:36:40;;;;;;;20.20;15.10;;;2.70;99.90;;;;;;4972338;28;20217;-50
2022/12/15 03:39:09;;;;;;;19.07;15.83;;;2.70;99.90;;;;;;4973182;28;20202;-50
2022/12/15 03:41:36;;;;;;;19.63;14.53;;;2.70;99.90;;;;;;4968339;28;20222;-51
2022/12/15 03:44:03;;;;;;;20.03;15.43;;;2.70;99.90;;;;;;4971417;28;20620;-50
2022/12/15 03:46:30;;;;;;;21.87;16.03;;;2.70;99.90;;;;;;4977893;28;20252;-51
2022/12/15 03:48:57;;;;;;;16.43;14.70;;;2.70;99.90;;;;;;4972360;28;20206;-50
2022/12/15 03:51:24;;;;;;;20.50;15.70;;;2.70;99.90;;;;;;4971307;28;20338;-51
2022/12/15 03:53:52;;;;;;;16.67;13.60;;;2.70;99.90;;;;;;4972634;28;20299;-50
2022/12/15 03:56:20;;;;;;;18.70;15.10;;;2.70;99.90;;;;;;4970082;28;20228;-50
2022/12/15 03:58:47;;;;;;;19.07;15.67;;;2.70;99.90;;;;;;4972270;28;20565;-50
2022/12/15 04:01:25;;;;;;;17.57;13.83;;;2.70;99.90;;;;;;4972361;28;20296;-50
2022/12/15 04:03:52;;;;;;;19.03;15.40;;;2.70;99.90;;;;;;4971410;28;20209;-50
2022/12/15 04:06:19;;;;;;;19.40;14.80;;;2.60;99.90;;;;;;4974071;28;20233;-50
2022/12/15 04:08:46;;;;;;;19.33;15.20;;;2.60;99.90;;;;;;4970808;28;20209;-50
2022/12/15 04:11:13;;;;;;;20.30;16.27;;;2.60;99.90;;;;;;4970379;28;20233;-50
2022/12/15 04:13:42;;;;;;;19.93;15.97;;;2.60;99.90;;;;;;4970327;28;20258;-50
2022/12/15 04:16:09;;;;;;;20.63;17.33;;;2.60;99.90;;;;;;4970325;28;20213;-50
2022/12/15 04:18:36;;;;;;;22.97;16.00;;;2.60;99.90;;;;;;4970961;28;20414;-50
2022/12/15 04:21:03;;;;;;;22.40;16.73;;;2.60;99.90;;;;;;4972316;28;20222;-50
2022/12/15 04:23:30;;;;;;;18.70;16.50;;;2.60;99.90;;;;;;4970486;28;20204;-49
2022/12/15 05:32:06;;;;;;;19.73;14.33;;;2.60;99.90;;;;;;4975688;28;20241;-50
2022/12/15 05:34:36;;;;;;;18.90;14.40;;;2.60;99.90;;;;;;4974102;28;20240;-50
2022/12/15 05:37:05;;;;;;;17.70;15.23;;;2.60;99.90;;;;;;4974564;28;20561;-50
2022/12/15 05:39:32;;;;;;;22.23;15.80;;;2.60;99.90;;;;;;4972196;28;20981;-50
2022/12/15 05:41:59;;;;;;;23.13;17.10;;;2.60;99.90;;;;;;4973975;28;20202;-49
2022/12/15 05:44:26;;;;;;;21.67;16.43;;;2.60;99.90;;;;;;4974097;28;20218;-50
2022/12/15 05:46:53;;;;;;;22.03;16.37;;;2.60;99.90;;;;;;4974484;28;20622;-50
2022/12/15 05:49:23;;;;;;;26.30;17.50;;;2.60;99.90;;;;;;4989828;28;20198;-50
2022/12/15 05:51:51;;;;;;;26.37;18.93;;;2.60;99.90;;;;;;4974771;28;20214;-49
2022/12/15 05:54:19;;;;;;;29.17;18.77;;;2.60;99.90;;;;;;4963479;28;20214;-51
2022/12/15 05:56:50;;;;;;;23.77;18.93;;;2.60;99.90;;;;;;4970675;28;20210;-51
2022/12/15 05:59:17;;;;;;;24.83;18.07;;;2.60;99.90;;;;;;4969752;28;20304;-50
2022/12/15 06:01:44;;;;;;;30.57;18.40;;;2.60;99.90;;;;;;4974759;28;20203;-50
2022/12/15 06:04:12;;;;;;;23.57;16.60;;;2.60;99.90;;;;;;4974672;28;20206;-50
2022/12/15 06:06:39;;;;;;;29.23;19.70;;;2.60;99.90;;;;;;4973495;28;20288;-50
2022/12/15 06:09:08;;;;;;;27.10;18.47;;;2.60;99.90;;;;;;4974629;28;20631;-51
2022/12/15 06:11:36;;;;;;;27.20;18.43;;;2.60;99.90;;;;;;4974060;28;20300;-50
2022/12/15 06:14:03;;;;;;;26.57;17.80;;;2.60;99.90;;;;;;4974591;28;20678;-50
2022/12/15 06:16:30;;;;;;;25.77;17.00;;;2.60;99.90;;;;;;4980971;28;20628;-49
2022/12/15 06:19:01;;;;;;;27.03;17.87;;;2.60;99.90;;;;;;4966442;28;20203;-51
2022/12/15 06:21:30;;;;;;;32.03;18.30;;;2.60;99.90;;;;;;4974507;28;20640;-50
2022/12/15 06:23:57;;;;;;;33.00;19.03;;;2.70;99.90;;;;;;4974608;28;20281;-50
2022/12/15 06:26:28;;;;;;;27.83;18.80;;;2.70;99.90;;;;;;4980921;28;20207;-50
2022/12/15 06:28:56;;;;;;;33.37;18.57;;;2.60;99.90;;;;;;4962876;28;20280;-51
2022/12/15 06:31:24;;;;;;;29.10;16.93;;;2.60;99.90;;;;;;4955244;28;20698;-49
2022/12/15 06:33:51;;;;;;;25.30;17.50;;;2.60;99.90;;;;;;4954999;29;20210;-51
2022/12/15 06:36:19;;;;;;;27.23;18.73;;;2.60;99.90;;;;;;4968204;28;20214;-49
2022/12/15 06:38:46;;;;;;;28.73;18.87;;;2.60;99.90;;;;;;5049497;23;20229;-51
2022/12/15 06:41:15;;;;;;;25.17;18.80;;;2.70;99.90;;;;;;5032240;28;20257;-52
2022/12/15 06:43:48;;;;;;;29.97;18.63;;;2.70;99.90;;;;;;5026404;28;20257;-51
2022/12/15 06:46:15;;;;;;;25.03;17.77;;;2.70;99.90;;;;;;5029465;28;20749;-54
2022/12/15 06:48:43;;;;;;;25.80;19.33;;;2.70;99.90;;;;;;5021028;28;20367;-51
2022/12/15 06:51:12;;;;;;;24.03;16.97;;;2.70;99.90;;;;;;5017558;28;20205;-51
2022/12/15 06:53:40;;;;;;;32.03;19.50;;;2.70;99.90;;;;;;5011296;28;20196;-50
2022/12/15 06:56:13;;;;;;;29.23;19.07;;;2.70;99.90;;;;;;5010430;28;20202;-52
2022/12/15 06:58:41;;;;;;;34.03;21.00;;;2.80;99.90;;;;;;5012160;28;20217;-49
2022/12/15 07:01:12;;;;;;;32.63;20.23;;;2.80;99.90;;;;;;5016787;28;20209;-49
2022/12/15 07:03:39;;;;;;;31.97;23.03;;;2.80;99.90;;;;;;5027314;28;20189;-50
2022/12/15 07:06:09;;;;;;;31.77;20.67;;;2.80;99.90;;;;;;5005734;28;20209;-48
2022/12/15 07:08:37;;;;;;;35.03;21.83;;;2.80;99.90;;;;;;5014126;28;20223;-48
2022/12/15 07:11:05;;;;;;;32.53;22.03;;;2.80;99.90;;;;;;5009388;28;20208;-48
2022/12/15 07:13:32;;;;;;;38.43;22.23;;;2.80;99.90;;;;;;5020450;28;20205;-48
2022/12/15 07:15:59;;;;;;;34.10;21.57;;;2.80;99.90;;;;;;5010825;28;20254;-49
2022/12/15 07:18:28;;;;;;;34.20;21.70;;;2.80;99.90;;;;;;5010106;28;20220;-47
2022/12/15 07:20:55;;;;;;;38.33;25.13;;;2.80;99.90;;;;;;5023791;28;20288;-48
2022/12/15 07:23:22;;;;;;;38.30;24.63;;;2.80;99.90;;;;;;5032051;28;20704;-47
2022/12/15 07:25:49;;;;;;;33.77;22.30;;;2.80;99.90;;;;;;5014433;28;20675;-48
2022/12/15 07:28:16;;;;;;;31.20;21.37;;;2.90;99.90;;;;;;5016885;28;20221;-48
2022/12/15 07:30:43;;;;;;;29.03;20.17;;;2.90;99.90;;;;;;5001610;28;20258;-48
2022/12/15 07:33:10;;;;;;;26.73;19.67;;;2.90;99.90;;;;;;5023323;28;20213;-48
2022/12/15 07:35:38;;;;;;;42.00;26.50;;;2.80;99.90;;;;;;5019365;28;20209;-48
2022/12/15 07:38:06;;;;;;;42.63;24.10;;;3.00;99.90;;;;;;5012598;28;20647;-48
2022/12/15 07:40:34;;;;;;;37.70;23.30;;;3.10;99.90;;;;;;5020100;28;20288;-48
2022/12/15 07:43:01;;;;;;;30.67;20.73;;;3.10;99.90;;;;;;5012552;28;20201;-47
2022/12/15 07:45:28;;;;;;;40.37;21.20;;;3.00;99.90;;;;;;5019905;28;20205;-49
2022/12/15 07:47:55;;;;;;;33.30;20.53;;;3.00;99.90;;;;;;5026070;28;20246;-47
2022/12/15 07:50:23;;;;;;;36.17;20.43;;;2.90;99.90;;;;;;5008385;28;20688;-47
2022/12/15 07:52:52;;;;;;;31.50;17.40;;;3.00;99.90;;;;;;5001796;28;20237;-49
2022/12/15 07:55:19;;;;;;;29.13;19.33;;;2.90;99.90;;;;;;5012276;28;20266;-49
2022/12/15 07:57:47;;;;;;;33.70;19.63;;;3.00;99.90;;;;;;5024814;28;20216;-49
2022/12/15 08:00:16;;;;;;;31.73;19.87;;;3.00;99.90;;;;;;5012126;28;20204;-49
2022/12/15 08:02:43;;;;;;;33.67;18.73;;;3.00;99.90;;;;;;5012241;28;20211;-47
2022/12/15 08:05:10;;;;;;;27.77;16.80;;;3.00;99.90;;;;;;5012221;28;20252;-48
2022/12/15 08:07:37;;;;;;;29.47;16.83;;;3.00;99.90;;;;;;5011873;28;20239;-48
2022/12/15 08:10:07;;;;;;;27.63;15.57;;;3.00;99.90;;;;;;5011374;28;20208;-48
2022/12/15 08:12:34;;;;;;;28.83;17.90;;;3.10;99.90;;;;;;5011718;28;20267;-49
2022/12/15 08:15:01;;;;;;;26.10;15.93;;;3.20;99.90;;;;;;5007744;28;20904;-48
2022/12/15 08:17:28;;;;;;;22.17;16.07;;;3.20;99.90;;;;;;5023316;28;20231;-49
2022/12/15 08:19:57;;;;;;;26.07;17.33;;;3.20;99.90;;;;;;5014218;28;20487;-46
2022/12/15 08:22:28;;;;;;;21.63;13.03;;;3.30;99.90;;;;;;5011646;28;20283;-49
2022/12/15 08:24:58;;;;;;;16.97;11.47;;;3.30;99.90;;;;;;5012330;28;20845;-49
2022/12/15 08:27:28;;;;;;;10.37;9.23;;;3.30;99.90;;;;;;5020982;28;20715;-48
2022/12/15 08:29:55;;;;;;;9.63;8.53;;;3.30;99.90;;;;;;5031240;28;20285;-48
2022/12/15 08:32:23;;;;;;;10.60;7.63;;;3.30;99.90;;;;;;5031093;28;20605;-48
2022/12/15 08:34:50;;;;;;;12.20;7.83;;;3.30;99.90;;;;;;5028298;28;20205;-49
2022/12/15 08:37:17;;;;;;;12.33;8.60;;;3.30;99.90;;;;;;5021801;28;20786;-48
2022/12/15 08:39:44;;;;;;;12.67;8.67;;;3.30;99.90;;;;;;5023022;28;20210;-49
2022/12/15 08:42:11;;;;;;;13.73;8.63;;;3.30;99.90;;;;;;5022124;28;20672;-48
2022/12/15 08:44:39;;;;;;;9.30;7.50;;;3.40;99.90;;;;;;5018110;28;20663;-49
2022/12/15 08:47:07;;;;;;;10.73;7.73;;;3.40;99.90;;;;;;5026888;28;20224;-49
2022/12/15 08:49:34;;;;;;;10.33;8.10;;;3.40;99.90;;;;;;5035501;28;20693;-49
2022/12/15 08:52:01;;;;;;;12.10;8.63;;;3.50;99.90;;;;;;5035175;28;20229;-49
2022/12/15 08:54:28;;;;;;;11.40;8.33;;;3.50;99.90;;;;;;5033224;28;20212;-49
2022/12/15 08:56:56;;;;;;;15.23;9.43;;;3.50;99.90;;;;;;5026254;28;20204;-48
2022/12/15 08:59:25;;;;;;;12.63;9.87;;;3.50;99.90;;;;;;5034979;28;20214;-50
2022/12/15 09:01:59;;;;;;;17.37;11.43;;;3.60;99.90;;;;;;5019941;28;20213;-50
2022/12/15 09:04:26;;;;;;;17.67;10.57;;;3.60;99.90;;;;;;5021256;28;20204;-50
2022/12/15 09:06:53;;;;;;;10.27;8.97;;;3.70;99.90;;;;;;5026152;28;20205;-49
2022/12/15 09:09:20;;;;;;;14.17;10.00;;;3.80;99.90;;;;;;5034533;28;20234;-51
2022/12/15 09:11:51;;;;;;;15.67;10.60;;;3.80;99.90;;;;;;5027040;28;20207;-51
2022/12/15 09:14:18;;;;;;;12.83;9.80;;;3.90;99.90;;;;;;5019230;28;20209;-50
2022/12/15 09:16:48;;;;;;;16.13;10.13;;;3.80;99.90;;;;;;5023440;28;20201;-51
2022/12/15 09:19:16;;;;;;;13.70;11.57;;;3.80;99.90;;;;;;5012763;28;20212;-49
2022/12/15 09:21:43;;;;;;;17.07;10.07;;;3.80;99.90;;;;;;5014919;28;20715;-51
2022/12/15 09:24:12;;;;;;;20.07;11.20;;;3.80;99.90;;;;;;5014468;28;20584;-52
2022/12/15 09:26:41;;;;;;;21.33;11.67;;;3.80;99.90;;;;;;5030771;28;20200;-48
2022/12/15 09:29:11;;;;;;;15.83;11.30;;;3.80;99.90;;;;;;5015256;28;20232;-49
2022/12/15 09:31:39;;;;;;;14.20;10.47;;;3.80;99.90;;;;;;5015139;28;20204;-49
2022/12/15 09:34:06;;;;;;;17.33;11.57;;;3.80;99.90;;;;;;5013717;28;20596;-50
2022/12/15 09:36:35;;;;;;;16.93;9.87;;;3.90;99.90;;;;;;5022590;28;20205;-51
2022/12/15 09:39:02;;;;;;;14.13;10.13;;;3.80;99.90;;;;;;5034193;28;20236;-51
2022/12/15 09:41:32;;;;;;;17.13;10.40;;;3.80;99.90;;;;;;5034325;28;20226;-51
2022/12/15 09:44:02;;;;;;;17.07;10.23;;;4.00;99.90;;;;;;5030294;28;20707;-48
2022/12/15 09:46:55;;;;;;;14.67;9.67;;;4.00;99.90;;;;;;5022095;28;20247;-48
2022/12/15 09:49:34;;;;;;;15.27;10.80;;;4.00;99.90;;;;;;4994870;28;20236;-49
2022/12/15 09:52:05;;;;;;;19.93;11.37;;;4.10;99.90;;;;;;5002561;28;20625;-49
2022/12/15 09:54:34;;;;;;;25.40;14.33;;;4.10;99.90;;;;;;5013647;28;20271;-48
2022/12/15 09:57:07;;;;;;;32.67;15.70;;;4.10;99.90;;;;;;5025414;28;20217;-49
2022/12/15 09:59:41;;;;;;;24.63;12.30;;;4.20;99.90;;;;;;5034352;28;20631;-49
2022/12/15 10:02:29;;;;;;;14.53;9.70;;;4.20;99.90;;;;;;5034621;28;20592;-49
2022/12/15 10:05:02;;;;;;;15.50;10.50;;;4.20;99.90;;;;;;5025568;28;20254;-50
2022/12/15 10:07:37;;;;;;;19.57;10.77;;;4.20;99.90;;;;;;5025306;28;20231;-49
2022/12/15 10:10:07;;;;;;;14.40;11.20;;;4.30;99.90;;;;;;5017548;28;20629;-48
2022/12/15 10:12:37;;;;;;;15.20;9.50;;;4.20;99.90;;;;;;5013450;28;20228;-49
2022/12/15 10:15:16;;;;;;;19.07;11.23;;;4.10;99.90;;;;;;5025416;28;20199;-48
2022/12/15 10:17:48;;;;;;;23.70;12.10;;;4.20;99.90;;;;;;5033311;28;20249;-48
2022/12/15 10:20:19;;;;;;;16.57;10.67;;;4.20;99.90;;;;;;5033748;28;20250;-49
2022/12/15 10:22:48;;;;;;;14.93;10.10;;;4.30;99.90;;;;;;5027211;28;20247;-49
2022/12/15 10:25:17;;;;;;;14.93;10.93;;;4.30;99.90;;;;;;5020065;28;20263;-48
2022/12/15 10:28:10;;;;;;;16.30;11.10;;;4.30;99.90;;;;;;5021108;28;20225;-50
2022/12/15 10:30:45;;;;;;;12.43;8.87;;;4.40;99.90;;;;;;5013797;28;20731;-50
2022/12/15 10:33:19;;;;;;;13.47;10.53;;;4.40;99.90;;;;;;5016719;28;20223;-49
2022/12/15 10:35:47;;;;;;;14.30;10.37;;;4.40;99.90;;;;;;5023531;28;20588;-48
2022/12/15 10:38:24;;;;;;;13.93;10.63;;;4.40;99.90;;;;;;5032767;28;20239;-49
2022/12/15 10:40:53;;;;;;;13.60;9.77;;;4.30;99.90;;;;;;5033440;28;20207;-48
2022/12/15 10:43:29;;;;;;;12.00;9.87;;;4.30;99.90;;;;;;5028292;28;20232;-49
2022/12/15 10:46:05;;;;;;;19.03;10.23;;;4.30;99.90;;;;;;5024804;28;20286;-49
2022/12/15 10:48:32;;;;;;;16.47;10.10;;;4.30;99.90;;;;;;5009703;28;20280;-48
2022/12/15 10:51:21;;;;;;;18.20;11.33;;;4.30;99.90;;;;;;4993869;28;20284;-49
2022/12/15 10:53:52;;;;;;;18.40;10.67;;;4.30;99.90;;;;;;5014932;28;20309;-48
2022/12/15 10:56:25;;;;;;;15.37;10.50;;;4.20;99.90;;;;;;5026105;28;20201;-48
2022/12/15 10:58:54;;;;;;;16.77;11.70;;;4.20;99.90;;;;;;5008404;28;20230;-48
2022/12/15 11:01:25;;;;;;;20.03;10.93;;;4.20;99.90;;;;;;5019570;28;20221;-49
2022/12/15 11:03:52;;;;;;;14.67;10.10;;;4.00;99.90;;;;;;5015102;28;20216;-49
2022/12/15 11:06:22;;;;;;;14.93;11.30;;;4.00;99.90;;;;;;5012466;28;20553;-49
2022/12/15 11:08:53;;;;;;;18.77;12.00;;;3.90;99.90;;;;;;5023967;28;20216;-49
2022/12/15 11:14:18;;;;;;;21.67;14.27;;;3.80;99.90;;;;;;5020084;28;20231;-48
2022/12/15 11:16:55;;;;;;;21.73;13.13;;;3.90;99.90;;;;;;5021558;28;20235;-48
2022/12/15 11:19:31;;;;;;;27.73;17.67;;;3.90;99.90;;;;;;5027542;28;20208;-48
2022/12/15 11:22:04;;;;;;;20.97;12.73;;;4.00;99.90;;;;;;5032236;28;20211;-49
2022/12/15 11:24:38;;;;;;;16.30;10.53;;;4.00;99.90;;;;;;5020254;28;20274;-49
2022/12/15 11:27:15;;;;;;;14.77;9.90;;;4.00;99.90;;;;;;5020131;28;20241;-49
2022/12/15 11:29:56;;;;;;;16.77;11.13;;;4.10;99.90;;;;;;5030069;28;20239;-49
2022/12/15 11:32:25;;;;;;;18.57;12.30;;;4.00;99.90;;;;;;5029483;28;20208;-49
2022/12/15 11:34:54;;;;;;;21.47;14.07;;;4.10;99.90;;;;;;5022879;28;20261;-48
2022/12/15 11:37:40;;;;;;;24.20;13.20;;;4.10;99.90;;;;;;5010810;28;20239;-49
2022/12/15 11:40:33;;;;;;;27.43;15.17;;;4.10;99.90;;;;;;4992454;28;20267;-48
2022/12/15 11:43:12;;;;;;;20.50;13.53;;;4.10;99.90;;;;;;5002525;28;20563;-49
2022/12/15 11:45:47;;;;;;;24.23;15.23;;;4.00;99.90;;;;;;5017151;28;20205;-48
2022/12/15 11:48:16;;;;;;;27.33;16.40;;;4.00;99.90;;;;;;5013175;28;20710;-49
2022/12/15 11:50:52;;;;;;;24.87;15.57;;;4.10;99.90;;;;;;5017973;28;20319;-49
2022/12/15 11:53:33;;;;;;;22.50;16.77;;;3.80;99.90;;;;;;5016130;28;20271;-49
2022/12/15 11:56:08;;;;;;;19.87;15.00;;;3.80;99.90;;;;;;5011600;28;20203;-49
2022/12/15 11:58:56;;;;;;;26.57;16.03;;;3.90;99.90;;;;;;5021851;28;20224;-49
2022/12/15 12:01:53;;;;;;;23.97;16.03;;;4.00;99.90;;;;;;5027230;28;20226;-48
2022/12/15 12:04:23;;;;;;;19.63;15.30;;;3.90;99.90;;;;;;5022082;28;20200;-49
2022/12/15 12:07:03;;;;;;;22.97;15.37;;;3.90;99.90;;;;;;5016496;28;20204;-48
2022/12/15 12:09:34;;;;;;;20.73;15.57;;;3.90;99.90;;;;;;5014970;28;20571;-48
2022/12/15 12:12:20;;;;;;;21.50;14.60;;;3.90;99.90;;;;;;5011569;28;20701;-49
2022/12/15 12:14:57;;;;;;;19.37;13.63;;;3.90;99.90;;;;;;5009602;28;20236;-49
2022/12/15 12:17:38;;;;;;;23.47;15.73;;;3.90;99.90;;;;;;5013893;28;20224;-48
2022/12/15 12:20:14;;;;;;;19.27;14.13;;;3.90;99.90;;;;;;5017844;28;20205;-48
2022/12/15 12:22:50;;;;;;;24.33;16.87;;;3.90;99.90;;;;;;5009345;28;20586;-48
2022/12/15 12:25:21;;;;;;;22.93;15.00;;;3.90;99.90;;;;;;5011602;28;20292;-48
2022/12/15 12:27:55;;;;;;;17.73;13.43;;;3.90;99.90;;;;;;5010855;28;20221;-48
2022/12/15 12:30:24;;;;;;;20.53;14.03;;;3.80;99.90;;;;;;5011807;28;20587;-49
2022/12/15 12:32:59;;;;;;;22.73;14.50;;;3.90;99.90;;;;;;5018620;28;20236;-48
2022/12/15 12:35:32;;;;;;;19.10;12.60;;;3.90;99.90;;;;;;5027006;28;20721;-49
2022/12/15 12:38:01;;;;;;;15.50;12.23;;;3.90;99.90;;;;;;5030914;28;20241;-48
2022/12/15 12:40:45;;;;;;;17.43;13.13;;;3.80;99.90;;;;;;5017379;28;20204;-48
2022/12/15 12:43:25;;;;;;;19.80;12.93;;;3.80;99.90;;;;;;5017918;28;20201;-48
2022/12/15 12:45:56;;;;;;;17.10;12.73;;;3.90;99.90;;;;;;5056375;23;20634;-49
2022/12/15 12:48:28;;;;;;;17.43;11.83;;;3.90;99.90;;;;;;5075809;28;20234;-49
2022/12/15 12:51:12;;;;;;;20.93;13.37;;;3.90;99.90;;;;;;5089183;28;20210;-49
2022/12/15 12:53:40;;;;;;;22.57;14.23;;;3.90;99.90;;;;;;5083755;28;20217;-50
2022/12/15 12:56:17;;;;;;;20.83;13.00;;;3.90;99.90;;;;;;5066342;28;20218;-50
2022/12/15 12:58:46;;;;;;;17.67;11.53;;;3.90;99.90;;;;;;5054848;28;20201;-50
2022/12/15 13:01:19;;;;;;;25.27;15.97;;;3.80;99.90;;;;;;5067152;28;20213;-50
2022/12/15 13:04:05;;;;;;;21.80;15.00;;;3.90;99.90;;;;;;5059044;28;20191;-49
2022/12/15 13:07:04;;;;;;;18.60;12.07;;;3.80;99.90;;;;;;5049753;28;20357;-50
2022/12/15 13:09:41;;;;;;;21.07;15.50;;;3.80;99.90;;;;;;5049163;28;20693;-50
2022/12/15 13:12:36;;;;;;;20.93;15.27;;;3.80;99.90;;;;;;5054199;28;20252;-50
2022/12/15 13:15:14;;;;;;;17.90;13.57;;;3.80;99.90;;;;;;5054528;28;20263;-49
2022/12/15 13:17:44;;;;;;;23.30;14.60;;;3.80;99.90;;;;;;5060231;28;20214;-49
2022/12/15 13:20:23;;;;;;;19.87;13.57;;;3.80;99.90;;;;;;5049717;28;20212;-50
2022/12/15 13:22:51;;;;;;;20.80;14.50;;;3.80;99.90;;;;;;5058244;28;20703;-50
2022/12/15 13:25:38;;;;;;;20.43;13.33;;;3.90;99.90;;;;;;5066334;28;20731;-50
2022/12/15 13:28:29;;;;;;;21.33;14.47;;;3.80;99.90;;;;;;5069882;28;20219;-50
2022/12/15 13:31:41;;;;;;;20.17;13.87;;;3.90;99.90;;;;;;5053042;28;20265;-50
2022/12/15 13:34:21;;;;;;;19.70;14.27;;;3.80;99.90;;;;;;5021801;28;20239;-49
2022/12/15 13:36:54;;;;;;;18.67;14.53;;;3.80;99.90;;;;;;5071841;28;20223;-50
2022/12/15 13:39:56;;;;;;;24.33;15.30;;;3.80;99.90;;;;;;5063361;28;20246;-51
2022/12/15 13:42:35;;;;;;;24.33;16.43;;;3.90;99.90;;;;;;5069399;28;20208;-49
2022/12/15 13:45:38;;;;;;;22.63;15.73;;;3.90;99.90;;;;;;5063436;28;20189;-50
2022/12/15 13:48:13;;;;;;;23.20;15.77;;;3.80;99.90;;;;;;5060813;28;20238;-50
2022/12/15 13:50:50;;;;;;;22.63;15.27;;;3.90;99.90;;;;;;5060355;28;20682;-50
2022/12/15 13:53:22;;;;;;;23.47;15.00;;;3.80;99.90;;;;;;5072672;28;20229;-50
2022/12/15 13:55:57;;;;;;;25.80;16.80;;;3.80;99.90;;;;;;5055666;28;20254;-50
2022/12/15 13:58:24;;;;;;;26.50;16.30;;;3.80;99.90;;;;;;5059158;28;20887;-50
2022/12/15 14:00:52;;;;;;;20.60;15.87;;;3.80;99.90;;;;;;5068261;28;20244;-50
2022/12/15 14:03:20;;;;;;;23.43;16.60;;;3.80;99.90;;;;;;5067548;28;20255;-50
2022/12/15 14:05:53;;;;;;;25.07;16.90;;;3.70;99.90;;;;;;5072680;28;20207;-49
2022/12/15 14:08:21;;;;;;;23.13;14.97;;;3.70;99.90;;;;;;5071411;28;20293;-49
2022/12/15 14:10:51;;;;;;;26.10;16.27;;;3.70;99.90;;;;;;5064076;28;20277;-49
2022/12/15 14:13:22;;;;;;;25.50;16.10;;;3.60;99.90;;;;;;5072269;28;20211;-49
2022/12/15 14:15:54;;;;;;;23.43;16.00;;;3.60;99.90;;;;;;5072322;28;20206;-50
2022/12/15 14:18:27;;;;;;;21.97;14.60;;;3.60;99.90;;;;;;5069341;28;20211;-50
2022/12/15 14:20:55;;;;;;;17.10;13.63;;;3.60;99.90;;;;;;5063955;28;20200;-50
2022/12/15 14:23:25;;;;;;;23.60;14.77;;;3.60;99.90;;;;;;5071987;28;20203;-50
2022/12/15 14:25:54;;;;;;;24.90;15.93;;;3.60;99.90;;;;;;5070397;28;20612;-49
2022/12/15 14:28:30;;;;;;;22.20;15.47;;;3.70;99.90;;;;;;5070910;28;20202;-50
2022/12/15 14:31:03;;;;;;;21.80;14.27;;;3.70;99.90;;;;;;5060200;28;20632;-49
2022/12/15 14:33:33;;;;;;;24.23;15.33;;;3.80;99.90;;;;;;5069315;28;20267;-48
2022/12/15 14:36:05;;;;;;;23.77;15.00;;;3.80;99.90;;;;;;5071878;28;20206;-49
2022/12/15 14:38:37;;;;;;;23.40;15.43;;;3.80;99.90;;;;;;5062556;28;20228;-49
2022/12/15 14:41:06;;;;;;;26.70;15.47;;;3.80;99.90;;;;;;5067231;28;20207;-50
2022/12/15 14:43:36;;;;;;;25.03;15.73;;;3.90;99.90;;;;;;5071886;28;20199;-50
2022/12/15 14:46:09;;;;;;;21.47;14.87;;;3.80;99.90;;;;;;5051728;28;20226;-50
2022/12/15 14:48:39;;;;;;;25.27;16.13;;;3.70;99.90;;;;;;5065107;28;20203;-49
2022/12/15 14:51:10;;;;;;;28.27;18.00;;;3.70;99.90;;;;;;5064869;28;20299;-49
2022/12/15 14:53:40;;;;;;;26.67;17.27;;;3.70;99.90;;;;;;5071415;28;20215;-49
2022/12/15 14:56:25;;;;;;;26.27;16.70;;;3.80;99.90;;;;;;5071468;28;20254;-49
2022/12/15 14:59:02;;;;;;;27.27;17.27;;;3.70;99.90;;;;;;5062032;28;20579;-49
2022/12/15 15:01:34;;;;;;;25.40;18.23;;;3.70;99.90;;;;;;5067815;28;20271;-49
2022/12/15 15:04:02;;;;;;;29.60;18.27;;;3.70;99.90;;;;;;5056628;28;20207;-50
2022/12/15 15:06:35;;;;;;;29.33;18.07;;;3.60;99.90;;;;;;5063464;28;20219;-49
2022/12/15 15:09:24;;;;;;;30.67;19.77;;;3.60;99.90;;;;;;5051519;28;20214;-50
2022/12/15 15:11:54;;;;;;;29.20;19.50;;;3.70;99.90;;;;;;5063907;28;20389;-50
2022/12/15 15:14:26;;;;;;;26.70;17.67;;;3.70;99.90;;;;;;5067802;28;20386;-49
2022/12/15 15:17:04;;;;;;;30.20;17.67;;;3.70;99.90;;;;;;5068003;28;20269;-49
2022/12/15 15:19:32;;;;;;;27.97;18.47;;;3.70;99.90;;;;;;5051398;28;20268;-49
2022/12/15 15:22:01;;;;;;;28.87;18.70;;;3.60;99.90;;;;;;5051172;28;20326;-49
2022/12/15 15:24:36;;;;;;;25.03;16.00;;;3.70;99.90;;;;;;5060776;28;20256;-49